Observation data for Childress on 11/22/2019      Previous  Date       Current Mesonet Observations  Soil Data  Daily Summary Page  Observations in Plain Language
KCXS 220600Z 02009KT 05/04 A3009 RMK A01 T00480039  RH  096%=      5-min Rain = 0
KCXS 220605Z 03009KT 05/04 A3009 RMK A01 T00470039  RH  096%=      5-min Rain = 0
KCXS 220610Z 01008KT 05/04 A301 RMK A01 T00480039  RH  096%=      5-min Rain = 0
KCXS 220615Z 03009KT 05/04 A3011 RMK A01 T00480037  RH  094%=      5-min Rain = 0.01
KCXS 220620Z 06006G11KT 05/03 A3013 RMK A01 T00470033  RH  093%=      5-min Rain = 0.07
KCXS 220625Z 05007KT 04/03 A3011 RMK A01 T00430032  RH  094%=      5-min Rain = 0.04
KCXS 220630Z 04006KT 04/03 A3013 RMK A01 T00420033  RH  096%=      5-min Rain = 0.01
KCXS 220635Z 34006KT 04/03 A3015 RMK A01 T00420034  RH  096%=      5-min Rain = 0.02
KCXS 220640Z 33006KT 04/04 A3016 RMK A01 T00420035  RH  097%=      5-min Rain = 0.02
KCXS 220645Z 34008KT 04/04 A3015 RMK A01 T00410035  RH  098%=      5-min Rain = 0.01
KCXS 220650Z 34008KT 04/04 A3015 RMK A01 T00400035  RH  098%=      5-min Rain = 0.01
KCXS 220655Z 34008KT 04/04 A3015 RMK A01 T00400035  RH  099%=      5-min Rain = 0
KCXS 220700Z 35008KT 04/04 A3015 RMK A01 T00400035  RH  099%=      5-min Rain = 0
KCXS 220705Z 00008KT 04/04 A3015 RMK A01 T00400035  RH  098%=      5-min Rain = 0
KCXS 220710Z 35007KT 04/04 A3015 RMK A01 T00400035  RH  099%=      5-min Rain = 0
KCXS 220715Z 35008KT 04/04 A3014 RMK A01 T00400035  RH  099%=      5-min Rain = 0
KCXS 220720Z 35009KT 04/04 A3013 RMK A01 T00390035  RH  099%=      5-min Rain = 0
KCXS 220725Z 35010KT 04/03 A3013 RMK A01 T00390034  RH  099%=      5-min Rain = 0
KCXS 220730Z 35010KT 04/03 A3012 RMK A01 T00380034  RH  099%=      5-min Rain = 0
KCXS 220735Z 36008KT 04/03 A3011 RMK A01 T00370034  RH  099%=      5-min Rain = 0
KCXS 220740Z 00010KT 04/03 A3011 RMK A01 T00370034  RH  099%=      5-min Rain = 0
KCXS 220745Z 36010KT 04/03 A301 RMK A01 T00370034  RH  099%=      5-min Rain = 0
KCXS 220750Z 35009KT 04/03 A3011 RMK A01 T00370034  RH  099%=      5-min Rain = 0
KCXS 220755Z 00007KT 04/03 A3012 RMK A01 T00370034  RH  099%=      5-min Rain = 0
KCXS 220800Z 01005KT 04/03 A3013 RMK A01 T00370034  RH  099%=      5-min Rain = 0
KCXS 220805Z 01010G15KT 04/03 A301 RMK A01 T00370033  RH  099%=      5-min Rain = 0
KCXS 220810Z 01011KT 04/03 A3009 RMK A01 T00360032  RH  099%=      5-min Rain = 0
KCXS 220815Z 00009KT 04/03 A3011 RMK A01 T00350030  RH  098%=      5-min Rain = 0
KCXS 220820Z 01008KT 04/03 A3013 RMK A01 T00350029  RH  098%=      5-min Rain = 0
KCXS 220825Z 02006G11KT 03/03 A3014 RMK A01 T00340028  RH  097%=      5-min Rain = 0
KCXS 220830Z 04006KT 03/03 A3014 RMK A01 T00340028  RH  097%=      5-min Rain = 0.01
KCXS 220835Z 04006KT 03/03 A3013 RMK A01 T00340028  RH  097%=      5-min Rain = 0.01
KCXS 220840Z 04008KT 03/03 A3011 RMK A01 T00340028  RH  098%=      5-min Rain = 0
KCXS 220845Z 03006KT 03/03 A3012 RMK A01 T00330028  RH  098%=      5-min Rain = 0.01
KCXS 220850Z 05007KT 03/03 A3013 RMK A01 T00330027  RH  098%=      5-min Rain = 0
KCXS 220855Z 05006KT 03/03 A3013 RMK A01 T00330028  RH  098%=      5-min Rain = 0
KCXS 220900Z 05007KT 03/03 A3013 RMK A01 T00320027  RH  098%=      5-min Rain = 0
KCXS 220905Z 03005KT 03/03 A3014 RMK A01 T00330027  RH  098%=      5-min Rain = 0
KCXS 220910Z 36007KT 03/03 A3014 RMK A01 T00330027  RH  098%=      5-min Rain = 0
KCXS 220915Z 36008KT 03/03 A3013 RMK A01 T00330027  RH  098%=      5-min Rain = 0
KCXS 220920Z 34008KT 03/03 A3014 RMK A01 T00320027  RH  098%=      5-min Rain = 0
KCXS 220925Z 35009KT 03/03 A3013 RMK A01 T00320027  RH  098%=      5-min Rain = 0
KCXS 220930Z 00008KT 03/03 A3013 RMK A01 T00320027  RH  098%=      5-min Rain = 0.01
KCXS 220935Z 00009KT 03/03 A3012 RMK A01 T00320027  RH  098%=      5-min Rain = 0
KCXS 220940Z 02010KT 03/03 A3009 RMK A01 T00300025  RH  098%=      5-min Rain = 0
KCXS 220945Z 01009KT 03/03 A3009 RMK A01 T00300025  RH  098%=      5-min Rain = 0
KCXS 220950Z 00010G15KT 03/03 A301 RMK A01 T00300026  RH  098%=      5-min Rain = 0
KCXS 220955Z 34012KT 03/03 A3011 RMK A01 T00310026  RH  098%=      5-min Rain = 0
KCXS 221000Z 33012KT 03/03 A3013 RMK A01 T00310025  RH  098%=      5-min Rain = 0
KCXS 221005Z 33012KT 03/03 A3014 RMK A01 T00310025  RH  098%=      5-min Rain = 0
KCXS 221010Z 32011KT 03/02 A3015 RMK A01 T00300024  RH  098%=      5-min Rain = 0
KCXS 221015Z 32009KT 03/02 A3017 RMK A01 T00300024  RH  097%=      5-min Rain = 0
KCXS 221020Z 32009KT 03/02 A3017 RMK A01 T00300024  RH  097%=      5-min Rain = 0
KCXS 221025Z 33011KT 03/02 A3016 RMK A01 T00300024  RH  097%=      5-min Rain = 0
KCXS 221030Z 33012KT 03/02 A3016 RMK A01 T00300024  RH  097%=      5-min Rain = 0
KCXS 221035Z 33012KT 03/02 A3016 RMK A01 T00300022  RH  096%=      5-min Rain = 0
KCXS 221040Z 33013KT 03/02 A3015 RMK A01 T00290021  RH  096%=      5-min Rain = 0
KCXS 221045Z 34013G18KT 03/02 A3015 RMK A01 T00290020  RH  095%=      5-min Rain = 0
KCXS 221050Z 34014KT 03/02 A3015 RMK A01 T00280018  RH  094%=      5-min Rain = 0
KCXS 221055Z 34013KT 03/02 A3016 RMK A01 T00280017  RH  094%=      5-min Rain = 0
KCXS 221100Z 34011G16KT 03/02 A3016 RMK A01 T00270017  RH  094%=      5-min Rain = 0
KCXS 221105Z 34012KT 03/02 A3016 RMK A01 T00270017  RH  094%=      5-min Rain = 0
KCXS 221110Z 34011KT 03/02 A3016 RMK A01 T00270016  RH  094%=      5-min Rain = 0
KCXS 221115Z 35011KT 03/02 A3015 RMK A01 T00260015  RH  094%=      5-min Rain = 0
KCXS 221120Z 35010KT 03/02 A3015 RMK A01 T00260015  RH  094%=      5-min Rain = 0
KCXS 221125Z 35010KT 03/02 A3015 RMK A01 T00250015  RH  094%=      5-min Rain = 0
KCXS 221130Z 35010KT 03/01 A3016 RMK A01 T00250014  RH  094%=      5-min Rain = 0
KCXS 221135Z 35010KT 03/02 A3015 RMK A01 T00250015  RH  094%=      5-min Rain = 0
KCXS 221140Z 34010KT 03/01 A3016 RMK A01 T00250014  RH  094%=      5-min Rain = 0
KCXS 221145Z 35010G15KT 03/01 A3016 RMK A01 T00250013  RH  093%=      5-min Rain = 0
KCXS 221150Z 35010KT 03/01 A3016 RMK A01 T00250012  RH  093%=      5-min Rain = 0
KCXS 221155Z 35011KT 02/01 A3016 RMK A01 T00240012  RH  093%=      5-min Rain = 0
KCXS 221200Z 34009KT 02/01 A3017 RMK A01 T00240012  RH  093%=      5-min Rain = 0
KCXS 221205Z 34009KT 02/01 A3017 RMK A01 T00240013  RH  094%=      5-min Rain = 0
KCXS 221210Z 34009KT 02/01 A3016 RMK A01 T00240014  RH  094%=      5-min Rain = 0
KCXS 221215Z 35010KT 02/01 A3016 RMK A01 T00230013  RH  094%=      5-min Rain = 0
KCXS 221220Z 34009KT 02/01 A3016 RMK A01 T00240012  RH  093%=      5-min Rain = 0
KCXS 221225Z 35009KT 02/01 A3016 RMK A01 T00230012  RH  094%=      5-min Rain = 0
KCXS 221230Z 35009KT 02/01 A3016 RMK A01 T00230013  RH  094%=      5-min Rain = 0
KCXS 221235Z 35009KT 02/01 A3016 RMK A01 T00230011  RH  094%=      5-min Rain = 0
KCXS 221240Z 35009KT 02/01 A3016 RMK A01 T00220010  RH  093%=      5-min Rain = 0
KCXS 221245Z 36008KT 02/01 A3016 RMK A01 T00210010  RH  094%=      5-min Rain = 0
KCXS 221250Z 36008KT 02/01 A3016 RMK A01 T00210009  RH  093%=      5-min Rain = 0
KCXS 221255Z 35008KT 02/01 A3015 RMK A01 T00210010  RH  094%=      5-min Rain = 0
KCXS 221300Z 35007KT 02/01 A3016 RMK A01 T00210011  RH  094%=      5-min Rain = 0
KCXS 221305Z 35007KT 02/01 A3016 RMK A01 T00210011  RH  094%=      5-min Rain = 0
KCXS 221310Z 34008KT 02/01 A3017 RMK A01 T00220011  RH  094%=      5-min Rain = 0
KCXS 221315Z 35007KT 02/01 A3017 RMK A01 T00230012  RH  094%=      5-min Rain = 0
KCXS 221320Z 34009KT 02/01 A3017 RMK A01 T00230012  RH  094%=      5-min Rain = 0
KCXS 221325Z 34010KT 02/01 A3016 RMK A01 T00230010  RH  092%=      5-min Rain = 0
KCXS 221330Z 34010KT 02/01 A3016 RMK A01 T00230010  RH  092%=      5-min Rain = 0
KCXS 221335Z 34010KT 02/01 A3017 RMK A01 T00230009  RH  092%=      5-min Rain = 0
KCXS 221340Z 34008KT 02/01 A3018 RMK A01 T00220010  RH  093%=      5-min Rain = 0
KCXS 221345Z 34008KT 02/01 A3018 RMK A01 T00220010  RH  093%=      5-min Rain = 0
KCXS 221350Z 33007KT 02/01 A3018 RMK A01 T00230010  RH  093%=      5-min Rain = 0
KCXS 221355Z 33007KT 02/01 A3018 RMK A01 T00230011  RH  093%=      5-min Rain = 0
KCXS 221400Z 33007KT 02/01 A3018 RMK A01 T00220011  RH  093%=      5-min Rain = 0
KCXS 221405Z 33008KT 02/01 A3018 RMK A01 T00220010  RH  093%=      5-min Rain = 0
KCXS 221410Z 33008KT 02/01 A3019 RMK A01 T00220010  RH  093%=      5-min Rain = 0
KCXS 221415Z 33008KT 02/01 A3019 RMK A01 T00220009  RH  093%=      5-min Rain = 0
KCXS 221420Z 33008KT 02/01 A3019 RMK A01 T00220009  RH  092%=      5-min Rain = 0
KCXS 221425Z 33008KT 02/01 A3019 RMK A01 T00240010  RH  092%=      5-min Rain = 0
KCXS 221430Z 33009KT 02/01 A3019 RMK A01 T00240009  RH  091%=      5-min Rain = 0
KCXS 221435Z 33007KT 02/01 A3019 RMK A01 T00240009  RH  091%=      5-min Rain = 0
KCXS 221440Z 34008KT 03/01 A3019 RMK A01 T00250008  RH  090%=      5-min Rain = 0
KCXS 221445Z 34006KT 03/01 A3019 RMK A01 T00250010  RH  091%=      5-min Rain = 0
KCXS 221450Z 34007KT 03/01 A3019 RMK A01 T00260010  RH  091%=      5-min Rain = 0
KCXS 221455Z 34009KT 03/01 A3019 RMK A01 T00260009  RH  090%=      5-min Rain = 0
KCXS 221500Z 33008KT 03/01 A3019 RMK A01 T00260010  RH  090%=      5-min Rain = 0
KCXS 221505Z 34008KT 03/01 A3019 RMK A01 T00270010  RH  090%=      5-min Rain = 0
KCXS 221510Z 34008KT 03/01 A3019 RMK A01 T00290011  RH  089%=      5-min Rain = 0
KCXS 221515Z 33007KT 03/01 A3018 RMK A01 T00310010  RH  088%=      5-min Rain = 0
KCXS 221520Z 33007KT 03/01 A3018 RMK A01 T00330012  RH  088%=      5-min Rain = 0
KCXS 221525Z 34007KT 03/01 A3019 RMK A01 T00330012  RH  087%=      5-min Rain = 0
KCXS 221530Z 34007KT 03/01 A3019 RMK A01 T00340012  RH  087%=      5-min Rain = 0
KCXS 221535Z 34009KT 04/01 A3019 RMK A01 T00380013  RH  085%=      5-min Rain = 0
KCXS 221540Z 33008KT 04/01 A3019 RMK A01 T00350010  RH  085%=      5-min Rain = 0
KCXS 221545Z 33009KT 03/01 A302 RMK A01 T00320008  RH  085%=      5-min Rain = 0
KCXS 221550Z 34008KT 03/01 A302 RMK A01 T00340011  RH  086%=      5-min Rain = 0
KCXS 221555Z 33009KT 03/01 A302 RMK A01 T00340009  RH  085%=      5-min Rain = 0
KCXS 221600Z 33008KT 03/01 A302 RMK A01 T00340010  RH  085%=      5-min Rain = 0
KCXS 221605Z 34008KT 03/01 A302 RMK A01 T00340008  RH  084%=      5-min Rain = 0
KCXS 221610Z 32009KT 03/01 A302 RMK A01 T00340008  RH  085%=      5-min Rain = 0
KCXS 221615Z 32008G13KT 03/01 A3021 RMK A01 T00330007  RH  084%=      5-min Rain = 0
KCXS 221620Z 33008KT 03/01 A3021 RMK A01 T00340006  RH  083%=      5-min Rain = 0
KCXS 221625Z 33010KT 03/01 A3021 RMK A01 T00320006  RH  084%=      5-min Rain = 0
KCXS 221630Z 34010KT 03/01 A302 RMK A01 T00320006  RH  084%=      5-min Rain = 0
KCXS 221635Z 34010KT 03/01 A302 RMK A01 T00320007  RH  085%=      5-min Rain = 0
KCXS 221640Z 34010KT 03/01 A302 RMK A01 T00320006  RH  084%=      5-min Rain = 0
KCXS 221645Z 33009KT 03/01 A302 RMK A01 T00340009  RH  085%=      5-min Rain = 0
KCXS 221650Z 33008KT 03/01 A302 RMK A01 T00340009  RH  084%=      5-min Rain = 0
KCXS 221655Z 32008KT 04/01 A302 RMK A01 T00350008  RH  084%=      5-min Rain = 0
KCXS 221700Z 32008KT 04/01 A302 RMK A01 T00350008  RH  084%=      5-min Rain = 0
KCXS 221705Z 33008KT 03/01 A302 RMK A01 T00340007  RH  084%=      5-min Rain = 0
KCXS 221710Z 33008KT 03/01 A302 RMK A01 T00340008  RH  084%=      5-min Rain = 0
KCXS 221715Z 34008KT 04/01 A3019 RMK A01 T00360009  RH  084%=      5-min Rain = 0
KCXS 221720Z 35008KT 04/01 A3019 RMK A01 T00360008  RH  083%=      5-min Rain = 0
KCXS 221725Z 35006KT 04/01 A3019 RMK A01 T00360009  RH  083%=      5-min Rain = 0
KCXS 221730Z 34007KT 04/01 A3019 RMK A01 T00380009  RH  083%=      5-min Rain = 0
KCXS 221735Z 35007KT 04/01 A3019 RMK A01 T00380007  RH  081%=      5-min Rain = 0
KCXS 221740Z 35006KT 04/01 A3019 RMK A01 T00380006  RH  081%=      5-min Rain = 0
KCXS 221745Z 34007KT 04/01 A3019 RMK A01 T00380008  RH  082%=      5-min Rain = 0
KCXS 221750Z 35005KT 04/01 A3018 RMK A01 T00420011  RH  082%=      5-min Rain = 0
KCXS 221755Z 34006KT 04/01 A3018 RMK A01 T00430010  RH  080%=      5-min Rain = 0
KCXS 221800Z 34007KT 04/01 A3018 RMK A01 T00430010  RH  080%=      5-min Rain = 0
KCXS 221805Z 35006KT 04/01 A3018 RMK A01 T00420011  RH  081%=      5-min Rain = 0
KCXS 221810Z 35007KT 04/01 A3018 RMK A01 T00440010  RH  080%=      5-min Rain = 0
KCXS 221815Z 34007KT 05/01 A3017 RMK A01 T00450010  RH  079%=      5-min Rain = 0
KCXS 221820Z 35006KT 05/01 A3017 RMK A01 T00460010  RH  078%=      5-min Rain = 0
KCXS 221825Z 32007KT 05/01 A3016 RMK A01 T00480008  RH  077%=      5-min Rain = 0
KCXS 221830Z 33008KT 05/01 A3016 RMK A01 T00470006  RH  076%=      5-min Rain = 0
KCXS 221835Z 33008KT 05/01 A3016 RMK A01 T00480007  RH  076%=      5-min Rain = 0
KCXS 221840Z 34010KT 05/01 A3015 RMK A01 T00480006  RH  075%=      5-min Rain = 0
KCXS 221845Z 33008KT 05/01 A3015 RMK A01 T00490008  RH  075%=      5-min Rain = 0
KCXS 221850Z 33009KT 05/01 A3015 RMK A01 T00500005  RH  074%=      5-min Rain = 0
KCXS 221855Z 32008KT 05/01 A3015 RMK A01 T00510007  RH  074%=      5-min Rain = 0
KCXS 221900Z 32008KT 06/01 A3014 RMK A01 T00550009  RH  073%=      5-min Rain = 0
KCXS 221905Z 31010KT 06/00 A3014 RMK A01 T00550004  RH  071%=      5-min Rain = 0
KCXS 221910Z 31010KT 05/00 A3014 RMK A01 T00540004  RH  071%=      5-min Rain = 0
KCXS 221915Z 31010KT 05/00 A3013 RMK A01 T00530004  RH  072%=      5-min Rain = 0
KCXS 221920Z 33009KT 06/01 A3013 RMK A01 T00550006  RH  072%=      5-min Rain = 0
KCXS 221925Z 32009KT 06/01 A3013 RMK A01 T00550005  RH  071%=      5-min Rain = 0
KCXS 221930Z 31010KT 06/00 A3013 RMK A01 T00550003  RH  070%=      5-min Rain = 0
KCXS 221935Z 32009KT 06/01 A3013 RMK A01 T00570005  RH  070%=      5-min Rain = 0
KCXS 221940Z 34009KT 06/01 A3013 RMK A01 T00550007  RH  072%=      5-min Rain = 0
KCXS 221945Z 34009KT 06/01 A3012 RMK A01 T00550006  RH  071%=      5-min Rain = 0
KCXS 221950Z 33008KT 06/01 A3012 RMK A01 T00560006  RH  071%=      5-min Rain = 0
KCXS 221955Z 31007KT 06/01 A3012 RMK A01 T00570006  RH  071%=      5-min Rain = 0
KCXS 222000Z 33007KT 06/01 A3012 RMK A01 T00590005  RH  069%=      5-min Rain = 0
KCXS 222005Z 31009KT 06/01 A3012 RMK A01 T00600005  RH  069%=      5-min Rain = 0
KCXS 222010Z 32009KT 06/00 A3011 RMK A01 T00590002  RH  068%=      5-min Rain = 0
KCXS 222015Z 33008KT 06/01 A3011 RMK A01 T00600005  RH  069%=      5-min Rain = 0
KCXS 222020Z 34008KT 06/00 A3011 RMK A01 T00600004  RH  068%=      5-min Rain = 0
KCXS 222025Z 33007KT 06/00 A3011 RMK A01 T00630003  RH  066%=      5-min Rain = 0
KCXS 222030Z 34008KT 06/01 A3011 RMK A01 T00630006  RH  068%=      5-min Rain = 0
KCXS 222035Z 35008KT 06/01 A3011 RMK A01 T00600005  RH  069%=      5-min Rain = 0
KCXS 222040Z 34008KT 06/01 A3011 RMK A01 T00610007  RH  069%=      5-min Rain = 0
KCXS 222045Z 34008KT 06/01 A3011 RMK A01 T00640005  RH  067%=      5-min Rain = 0
KCXS 222050Z 34009KT 06/00 A3011 RMK A01 T00630003  RH  066%=      5-min Rain = 0
KCXS 222055Z 35009KT 06/00 A301 RMK A01 T00610004  RH  068%=      5-min Rain = 0
KCXS 222100Z 01010KT 06/01 A301 RMK A01 T00600005  RH  069%=      5-min Rain = 0
KCXS 222105Z 34008KT 06/01 A301 RMK A01 T00610006  RH  068%=      5-min Rain = 0
KCXS 222110Z 34007KT 07/01 A301 RMK A01 T00670005  RH  065%=      5-min Rain = 0
KCXS 222115Z 36005KT 06/00 A301 RMK A01 T00640002  RH  065%=      5-min Rain = 0
KCXS 222120Z 34005KT 06/00 A301 RMK A01 T00640003  RH  066%=      5-min Rain = 0
KCXS 222125Z 33007KT 07/00 A301 RMK A01 T00660003  RH  065%=      5-min Rain = 0
KCXS 222130Z 32006KT 07/00 A301 RMK A01 T00660003  RH  065%=      5-min Rain = 0
KCXS 222135Z 35007KT 06/00 A301 RMK A01 T00630002  RH  066%=      5-min Rain = 0
KCXS 222140Z 35007KT 06/00 A3009 RMK A01 T00620002  RH  066%=      5-min Rain = 0
KCXS 222145Z 01008KT 06/00 A3009 RMK A01 T00610002  RH  067%=      5-min Rain = 0
KCXS 222150Z 02007KT 06/00 A3009 RMK A01 T00600002  RH  067%=      5-min Rain = 0
KCXS 222155Z 03006KT 06/00 A3009 RMK A01 T00600001  RH  067%=      5-min Rain = 0
KCXS 222200Z 02006KT 06/00 A3009 RMK A01 T00600002  RH  067%=      5-min Rain = 0
KCXS 222205Z 35006KT 06/00 A3009 RMK A01 T00600001  RH  066%=      5-min Rain = 0
KCXS 222210Z 36006KT 06/00 A3009 RMK A01 T005900-0  RH  067%=      5-min Rain = 0
KCXS 222215Z 36006KT 06/00 A3009 RMK A01 T00590000  RH  067%=      5-min Rain = 0
KCXS 222220Z 02005KT 06/00 A3009 RMK A01 T00590002  RH  068%=      5-min Rain = 0
KCXS 222225Z 04004KT 06/00 A3009 RMK A01 T00580002  RH  068%=      5-min Rain = 0
KCXS 222230Z 36004KT 06/00 A3009 RMK A01 T00580002  RH  068%=      5-min Rain = 0
KCXS 222235Z 00004KT 06/00 A3009 RMK A01 T00580002  RH  068%=      5-min Rain = 0
KCXS 222240Z 01006KT 06/00 A3009 RMK A01 T00570002  RH  069%=      5-min Rain = 0
KCXS 222245Z 04007KT 05/00 A3009 RMK A01 T00540002  RH  070%=      5-min Rain = 0
KCXS 222250Z 02006KT 05/00 A3009 RMK A01 T00530003  RH  071%=      5-min Rain = 0
KCXS 222255Z 01006KT 05/00 A3009 RMK A01 T00520002  RH  071%=      5-min Rain = 0
KCXS 222300Z 02006KT 05/00 A3009 RMK A01 T00510001  RH  071%=      5-min Rain = 0
KCXS 222305Z 02005KT 05/00 A3009 RMK A01 T00510001  RH  071%=      5-min Rain = 0
KCXS 222310Z 02006KT 05/00 A3009 RMK A01 T005000-0  RH  071%=      5-min Rain = 0
KCXS 222315Z 01006KT 05/M00 A3009 RMK A01 T00491001  RH  071%=      5-min Rain = 0
KCXS 222320Z 02005KT 05/00 A3009 RMK A01 T00490000  RH  071%=      5-min Rain = 0
KCXS 222325Z 02005KT 05/M00 A3009 RMK A01 T00491001  RH  071%=      5-min Rain = 0
KCXS 222330Z 02005KT 05/00 A3009 RMK A01 T004900-0  RH  071%=      5-min Rain = 0
KCXS 222335Z 03006KT 05/00 A3009 RMK A01 T00490000  RH  072%=      5-min Rain = 0
KCXS 222340Z 02006KT 05/00 A3009 RMK A01 T004800-0  RH  072%=      5-min Rain = 0
KCXS 222345Z 02005KT 05/00 A3009 RMK A01 T00480002  RH  073%=      5-min Rain = 0
KCXS 222350Z 03005KT 05/00 A3009 RMK A01 T00470002  RH  073%=      5-min Rain = 0
KCXS 222355Z 03005KT 05/00 A3009 RMK A01 T00470002  RH  074%=      5-min Rain = 0
KCXS 230000Z 02005KT 05/00 A3009 RMK A01 T00460002  RH  074%=      5-min Rain = 0
KCXS 230005Z 02005KT 05/00 A3009 RMK A01 T00460003  RH  074%=      5-min Rain = 0
KCXS 230010Z 02005KT 05/00 A3009 RMK A01 T00460002  RH  074%=      5-min Rain = 0
KCXS 230015Z 03005KT 05/00 A3009 RMK A01 T00460002  RH  074%=      5-min Rain = 0
KCXS 230020Z 03004KT 05/00 A3009 RMK A01 T00460002  RH  074%=      5-min Rain = 0
KCXS 230025Z 04005KT 05/00 A3009 RMK A01 T00460002  RH  074%=      5-min Rain = 0
KCXS 230030Z 04006KT 05/00 A3009 RMK A01 T00460001  RH  074%=      5-min Rain = 0
KCXS 230035Z 03004KT 05/00 A3009 RMK A01 T00450000  RH  073%=      5-min Rain = 0
KCXS 230040Z 05004KT 05/00 A3008 RMK A01 T00450001  RH  074%=      5-min Rain = 0
KCXS 230045Z 05003KT 05/00 A3008 RMK A01 T00450004  RH  075%=      5-min Rain = 0
KCXS 230050Z 05005KT 05/00 A3009 RMK A01 T00450002  RH  074%=      5-min Rain = 0
KCXS 230055Z 05006KT 04/00 A3008 RMK A01 T00440001  RH  074%=      5-min Rain = 0
KCXS 230100Z 06006KT 04/00 A3008 RMK A01 T00430001  RH  075%=      5-min Rain = 0
KCXS 230105Z 06006KT 04/00 A3009 RMK A01 T00410001  RH  076%=      5-min Rain = 0
KCXS 230110Z 06005KT 04/00 A3009 RMK A01 T00390001  RH  077%=      5-min Rain = 0
KCXS 230115Z 07005KT 04/00 A3009 RMK A01 T003600-0  RH  078%=      5-min Rain = 0
KCXS 230120Z 08005KT 03/00 A3008 RMK A01 T003300-0  RH  080%=      5-min Rain = 0
KCXS 230125Z 07004KT 03/00 A3009 RMK A01 T003100-0  RH  081%=      5-min Rain = 0
KCXS 230130Z 05004KT 03/M00 A301 RMK A01 T00291001  RH  082%=      5-min Rain = 0
KCXS 230135Z 06004KT 03/M00 A301 RMK A01 T00291001  RH  081%=      5-min Rain = 0
KCXS 230140Z 06005KT 03/M00 A301 RMK A01 T00271002  RH  082%=      5-min Rain = 0
KCXS 230145Z 06005KT 03/M00 A301 RMK A01 T00261002  RH  082%=      5-min Rain = 0
KCXS 230150Z 06005KT 03/M00 A301 RMK A01 T00251002  RH  083%=      5-min Rain = 0
KCXS 230155Z 06005KT 03/M00 A301 RMK A01 T00251001  RH  084%=      5-min Rain = 0
KCXS 230200Z 06005KT 03/M00 A301 RMK A01 T00261001  RH  084%=      5-min Rain = 0
KCXS 230205Z 07005KT 03/00 A301 RMK A01 T002600-0  RH  084%=      5-min Rain = 0
KCXS 230210Z 08004KT 03/00 A301 RMK A01 T00270002  RH  084%=      5-min Rain = 0
KCXS 230215Z 08004KT 03/00 A301 RMK A01 T00290003  RH  084%=      5-min Rain = 0
KCXS 230220Z 08004KT 03/00 A301 RMK A01 T00310004  RH  083%=      5-min Rain = 0
KCXS 230225Z 09004KT 03/00 A301 RMK A01 T00320004  RH  083%=      5-min Rain = 0
KCXS 230230Z 09004KT 03/00 A301 RMK A01 T00330003  RH  082%=      5-min Rain = 0
KCXS 230235Z 08004KT 03/00 A301 RMK A01 T00330003  RH  082%=      5-min Rain = 0
KCXS 230240Z 09005KT 03/00 A301 RMK A01 T00340003  RH  081%=      5-min Rain = 0
KCXS 230245Z 08004KT 03/00 A301 RMK A01 T00340003  RH  081%=      5-min Rain = 0
KCXS 230250Z 08005KT 03/00 A301 RMK A01 T00340004  RH  082%=      5-min Rain = 0
KCXS 230255Z 09005KT 03/00 A301 RMK A01 T00340003  RH  081%=      5-min Rain = 0
KCXS 230300Z 09004KT 03/00 A301 RMK A01 T00340004  RH  082%=      5-min Rain = 0
KCXS 230305Z 10004KT 03/01 A301 RMK A01 T00340005  RH  082%=      5-min Rain = 0
KCXS 230310Z 08004KT 03/00 A301 RMK A01 T00340004  RH  082%=      5-min Rain = 0
KCXS 230315Z 08005KT 03/00 A301 RMK A01 T00330002  RH  081%=      5-min Rain = 0
KCXS 230320Z 08004KT 03/00 A301 RMK A01 T00330003  RH  082%=      5-min Rain = 0
KCXS 230325Z 08005KT 03/00 A3009 RMK A01 T00330002  RH  081%=      5-min Rain = 0
KCXS 230330Z 08005KT 03/00 A3009 RMK A01 T00330002  RH  081%=      5-min Rain = 0
KCXS 230335Z 07004KT 03/00 A301 RMK A01 T00330003  RH  081%=      5-min Rain = 0
KCXS 230340Z 08004KT 03/00 A3009 RMK A01 T00330003  RH  082%=      5-min Rain = 0
KCXS 230345Z 08005KT 03/00 A3009 RMK A01 T00330004  RH  082%=      5-min Rain = 0
KCXS 230350Z 09005KT 03/00 A3009 RMK A01 T00330003  RH  082%=      5-min Rain = 0
KCXS 230355Z 09004KT 03/00 A3009 RMK A01 T00330003  RH  082%=      5-min Rain = 0
KCXS 230400Z 10004KT 03/00 A301 RMK A01 T00330004  RH  082%=      5-min Rain = 0
KCXS 230405Z 10004KT 03/00 A301 RMK A01 T00340003  RH  082%=      5-min Rain = 0
KCXS 230410Z 10004KT 03/00 A301 RMK A01 T00340004  RH  082%=      5-min Rain = 0
KCXS 230415Z 11005KT 03/00 A301 RMK A01 T00330002  RH  081%=      5-min Rain = 0
KCXS 230420Z 11004KT 03/00 A301 RMK A01 T00330004  RH  082%=      5-min Rain = 0
KCXS 230425Z 11004KT 03/00 A301 RMK A01 T00330004  RH  082%=      5-min Rain = 0
KCXS 230430Z 10003KT 03/01 A301 RMK A01 T00330005  RH  083%=      5-min Rain = 0
KCXS 230435Z 10004KT 03/00 A301 RMK A01 T00330004  RH  082%=      5-min Rain = 0
KCXS 230440Z 10004KT 03/00 A301 RMK A01 T00320002  RH  081%=      5-min Rain = 0
KCXS 230445Z 10003KT 03/00 A301 RMK A01 T00320002  RH  081%=      5-min Rain = 0
KCXS 230450Z 12004KT 03/00 A301 RMK A01 T00320002  RH  082%=      5-min Rain = 0
KCXS 230455Z 12003KT 03/00 A301 RMK A01 T00320002  RH  081%=      5-min Rain = 0
KCXS 230500Z 12003KT 03/00 A301 RMK A01 T00320002  RH  082%=      5-min Rain = 0
KCXS 230505Z 13003KT 03/00 A301 RMK A01 T00320003  RH  082%=      5-min Rain = 0
KCXS 230510Z 12002KT 03/00 A301 RMK A01 T00320003  RH  082%=      5-min Rain = 0
KCXS 230515Z 13003KT 03/00 A301 RMK A01 T00320003  RH  082%=      5-min Rain = 0
KCXS 230520Z 16003KT 03/01 A301 RMK A01 T00320006  RH  084%=      5-min Rain = 0
KCXS 230525Z 15002KT 03/01 A301 RMK A01 T00320005  RH  084%=      5-min Rain = 0
KCXS 230530Z 12003KT 03/01 A301 RMK A01 T00320006  RH  084%=      5-min Rain = 0
KCXS 230535Z 12003KT 03/01 A301 RMK A01 T00320006  RH  084%=      5-min Rain = 0
KCXS 230540Z 12003KT 03/01 A301 RMK A01 T00310005  RH  084%=      5-min Rain = 0
KCXS 230545Z 12003KT 03/01 A3011 RMK A01 T00320005  RH  084%=      5-min Rain = 0
KCXS 230550Z 11003KT 03/00 A3011 RMK A01 T00310002  RH  082%=      5-min Rain = 0
KCXS 230555Z 12003KT 03/00 A3011 RMK A01 T00310002  RH  082%=      5-min Rain = 0

Page generated in 0.0093 seconds.